Strona główna
METAR-TAF:

METAR-TAF

Lotnisko :

Kuwejt, Kuwejt

Port lotniczy Kuwejt

Szerokość geograficzna: 29-13N, Długość geograficzna: 047-59E, wysokość: 55 m

Aktualna obserwacja pogody

Raport powstał 51 minut temu, godzina 11:00 UTC
Wiatr 10 kt od południowy wschód
Temperatura 20°C
Wilgotność 43%
Ciśnienie 1016 hPa
Widzialność 10 km lub więcej
Brak chmur poniżej 1500 m i brak chmur cumulonimbus

METAR: OKBK 181100Z 13010KT CAVOK 20/07 Q1016 NOSIG

czas: 14:51 (11:51 UTC)

Prognoza

Raport powstał 7 godziny i 6 minut temu, godzina 04:45 UTC
Prognoza ważna od 18 godzina 06 UTC do 19 godzina 12 UTC
Wiatr 3 kt z kierunków zmiennych
Widzialność: 7000 m
bezchmurnie
Stopniowe zmiany
od 18 godzina 11 UTC do 18 godzina 13 UTC
Wiatr 10 kt od południowy wschód

TAF: OKBK 180445Z 1806/1912 VRB03KT 7000 SKC BECMG 1811/1813 13010KT

Obserwacja i prognoza pogody dla ponad 4000 lotnisk (raport METAR i TAF).

Dostępne stacje oznaczono żółtymi i czerwonymi punktami na mapie.

Najedź kursorem aby zobaczyć nazwę stacji.

Kliknij aby zobaczyć obserwacje i prognozy pogody.

Aby zmienić mapę: kliknij na zielony przycisk z czarnym krzyżykiem, aby powiększyć; na zielony przycisk z myślnikiem, aby pomniejszyć; na zielone strzałki, aby przejść do map sąsiednich.


METAR-TAF: